createdAt,value
2022-08-24T00:01:33.527Z,98050.34
2022-08-24T00:04:02.150Z,98044.50
2022-08-24T00:06:32.301Z,98021.59
2022-08-24T00:09:00.484Z,98020.59
2022-08-24T00:11:28.625Z,98004.34
2022-08-24T00:13:57.161Z,97965.53
2022-08-24T00:16:26.927Z,97947.81
2022-08-24T00:18:56.350Z,97975.09
2022-08-24T00:21:27.165Z,97970.13
2022-08-24T00:23:55.309Z,97958.31
2022-08-24T00:26:29.009Z,97952.50
2022-08-24T00:28:57.938Z,97932.59
2022-08-24T00:31:27.823Z,97907.72
2022-08-24T00:33:56.466Z,97883.47
2022-08-24T00:36:25.598Z,97866.53
2022-08-24T00:38:54.679Z,97837.72
2022-08-24T00:41:23.262Z,97846.63
2022-08-24T00:43:56.502Z,97773.34
2022-08-24T00:46:29.697Z,97773.44
2022-08-24T00:49:04.284Z,97786.78
2022-08-24T00:51:40.682Z,97774.34
2022-08-24T00:54:12.704Z,97763.03
2022-08-24T00:56:45.181Z,97758.06
2022-08-24T00:59:20.770Z,97730.56
2022-08-24T01:01:51.002Z,97701.28
2022-08-24T01:04:23.539Z,97678.25
2022-08-24T01:06:51.800Z,97692.78
2022-08-24T01:09:20.082Z,97679.53
2022-08-24T01:11:51.246Z,97669.25
2022-08-24T01:14:22.454Z,97654.97
2022-08-24T01:17:10.453Z,97654.97
2022-08-24T01:19:41.541Z,97618.94
2022-08-24T01:22:21.508Z,97630.31
2022-08-24T01:24:51.067Z,97634.44
2022-08-24T01:27:24.879Z,97570.16
2022-08-24T01:29:57.447Z,97590.78
2022-08-24T01:32:28.113Z,97541.88
2022-08-24T01:34:56.661Z,97543.19
2022-08-24T01:37:25.370Z,97586.41
2022-08-24T01:39:59.214Z,97545.44
2022-08-24T01:42:30.040Z,97551.75
2022-08-24T01:44:58.370Z,97537.56
2022-08-24T01:47:26.391Z,97531.59
2022-08-24T01:49:54.773Z,97523.16
2022-08-24T01:52:26.105Z,97524.44
2022-08-24T01:54:55.691Z,97466.69
2022-08-24T01:57:26.117Z,97444.16
2022-08-24T01:59:55.171Z,97493.50
2022-08-24T02:02:29.032Z,97446.28
2022-08-24T02:04:57.748Z,97471.31
2022-08-24T02:07:26.219Z,97409.75
2022-08-24T02:09:56.432Z,97445.63
2022-08-24T02:12:24.578Z,97420.56
2022-08-24T02:14:53.896Z,97382.44
2022-08-24T02:17:22.286Z,97363.78
2022-08-24T02:19:50.295Z,97391.44
2022-08-24T02:22:18.273Z,97386.03
2022-08-24T02:24:46.360Z,97352.44
2022-08-24T02:27:17.322Z,97381.09
2022-08-24T02:29:46.294Z,97352.63
2022-08-24T02:32:14.790Z,97346.06
2022-08-24T02:34:44.120Z,97335.78
2022-08-24T02:37:12.386Z,97275.28
2022-08-24T02:39:40.647Z,97313.19
2022-08-24T02:42:09.182Z,97299.19
2022-08-24T02:44:38.850Z,97316.09
2022-08-24T02:47:07.544Z,97262.22
2022-08-24T02:49:36.625Z,97275.75
2022-08-24T02:52:05.346Z,97263.03
2022-08-24T02:54:33.472Z,97278.34
2022-08-24T02:57:02.342Z,97246.03
2022-08-24T02:59:30.365Z,97287.84
2022-08-24T03:01:59.743Z,97238.91
2022-08-24T03:04:27.885Z,97237.97
2022-08-24T03:06:56.002Z,97251.69
2022-08-24T03:09:24.026Z,97212.09
2022-08-24T03:11:57.458Z,97211.38
2022-08-24T03:14:25.643Z,97225.97
2022-08-24T03:16:53.778Z,97214.09
2022-08-24T03:19:24.208Z,97205.88
2022-08-24T03:21:55.367Z,97181.66
2022-08-24T03:24:24.157Z,97168.66
2022-08-24T03:26:54.573Z,97136.13
2022-08-24T03:29:24.101Z,97161.63
2022-08-24T03:31:55.502Z,97115.56
2022-08-24T03:34:24.947Z,97139.88
2022-08-24T03:36:53.022Z,97156.97
2022-08-24T03:39:24.191Z,97093.72
2022-08-24T03:41:55.103Z,97150.03
2022-08-24T03:44:25.402Z,97153.50
2022-08-24T03:46:54.342Z,97137.47
2022-08-24T03:49:22.755Z,97134.56
2022-08-24T03:51:54.883Z,97141.31
2022-08-24T03:54:23.081Z,97127.91
2022-08-24T03:56:51.247Z,97123.16
2022-08-24T03:59:34.751Z,97138.69
2022-08-24T04:02:09.553Z,97204.59
2022-08-24T04:04:43.159Z,97185.69
2022-08-24T04:07:13.866Z,97235.97
2022-08-24T04:09:42.997Z,97195.53
2022-08-24T04:12:12.213Z,97244.00
2022-08-24T04:14:40.498Z,97259.38
2022-08-24T04:17:08.952Z,97266.78
2022-08-24T04:19:37.105Z,97316.00
2022-08-24T04:22:05.175Z,97323.97
2022-08-24T04:24:34.775Z,97349.13
2022-08-24T04:27:02.757Z,97381.38
2022-08-24T04:29:30.957Z,97380.34
2022-08-24T04:31:59.890Z,97367.72
2022-08-24T04:34:28.047Z,97422.00
2022-08-24T04:36:56.181Z,97426.00
2022-08-24T04:39:24.200Z,97446.91
2022-08-24T04:41:58.979Z,97511.97
2022-08-24T04:44:34.316Z,97558.69
2022-08-24T04:47:02.633Z,97558.13
2022-08-24T04:49:31.604Z,97576.53
2022-08-24T04:51:59.791Z,97650.53
2022-08-24T04:54:27.840Z,97696.56
2022-08-24T04:56:57.400Z,97728.09
2022-08-24T04:59:25.838Z,97794.06
2022-08-24T05:01:54.539Z,97813.25
2022-08-24T05:04:23.191Z,97914.56
2022-08-24T05:07:00.293Z,97995.59
2022-08-24T05:09:28.778Z,98059.38
2022-08-24T05:11:58.469Z,98148.09
2022-08-24T05:14:28.949Z,98276.38
2022-08-24T05:16:57.329Z,98365.38
2022-08-24T05:19:26.070Z,98443.44
2022-08-24T05:21:54.572Z,98589.47
2022-08-24T05:24:23.382Z,98711.63
2022-08-24T05:26:53.286Z,98880.94
2022-08-24T05:29:23.546Z,98976.72
2022-08-24T05:31:51.597Z,99098.31
2022-08-24T05:34:19.876Z,99196.72
2022-08-24T05:36:48.184Z,99298.88
2022-08-24T05:39:16.441Z,99339.81
2022-08-24T05:41:48.354Z,99465.19
2022-08-24T05:44:18.704Z,99601.00
2022-08-24T05:46:48.235Z,99728.47
2022-08-24T05:49:16.996Z,99896.53
2022-08-24T05:51:47.455Z,100105.47
2022-08-24T05:54:15.581Z,100273.50
2022-08-24T05:56:44.768Z,100401.13
2022-08-24T05:59:13.946Z,100592.34
2022-08-24T06:01:45.528Z,100660.75
2022-08-24T06:04:15.806Z,100642.72
2022-08-24T06:06:44.003Z,100750.38
2022-08-24T06:09:16.869Z,100889.69
2022-08-24T06:11:51.156Z,101012.66
2022-08-24T06:14:23.893Z,101143.53
2022-08-24T06:16:54.732Z,101219.19
2022-08-24T06:19:24.454Z,101249.81
2022-08-24T06:21:54.197Z,101225.19
2022-08-24T06:24:44.687Z,101229.69
2022-08-24T06:27:25.500Z,101178.09
2022-08-24T06:29:56.642Z,101175.41
2022-08-24T06:32:26.059Z,101070.84
2022-08-24T06:34:59.024Z,100982.38
2022-08-24T06:37:29.345Z,100920.13
2022-08-24T06:39:59.178Z,100864.66
2022-08-24T06:42:29.420Z,100827.59
2022-08-24T06:44:57.323Z,100783.75
2022-08-24T06:47:25.392Z,100719.19
2022-08-24T06:49:53.496Z,100765.38
2022-08-24T06:52:22.958Z,100777.84
2022-08-24T06:54:51.227Z,100805.53
2022-08-24T06:57:19.221Z,100816.81
2022-08-24T06:59:48.210Z,100853.88
2022-08-24T07:02:19.002Z,100860.16
2022-08-24T07:04:47.219Z,100920.69
2022-08-24T07:07:15.422Z,100932.84
2022-08-24T07:09:45.541Z,100939.91
2022-08-24T07:12:13.456Z,100982.78
2022-08-24T07:14:41.554Z,101029.38
2022-08-24T07:17:09.485Z,101064.47
2022-08-24T07:19:37.911Z,101037.06
2022-08-24T07:22:05.998Z,101101.28
2022-08-24T07:24:33.994Z,101142.53
2022-08-24T07:27:03.429Z,101184.06
2022-08-24T07:29:47.223Z,101192.84
2022-08-24T07:32:18.542Z,101235.06
2022-08-24T07:34:46.780Z,101284.13
2022-08-24T07:37:14.726Z,101374.00
2022-08-24T07:39:42.794Z,101453.88
2022-08-24T07:42:14.975Z,101530.69
2022-08-24T07:44:46.952Z,101534.66
2022-08-24T07:47:37.088Z,101508.94
2022-08-24T07:50:03.251Z,101408.91
2022-08-24T07:52:32.542Z,101423.94
2022-08-24T07:55:01.435Z,101424.81
2022-08-24T07:57:33.665Z,101448.06
2022-08-24T08:00:02.696Z,101524.84
2022-08-24T08:02:35.106Z,101587.63
2022-08-24T08:05:05.107Z,101608.22
2022-08-24T08:07:33.086Z,101604.22
2022-08-24T08:10:02.445Z,101656.22
2022-08-24T08:12:32.093Z,101707.38
2022-08-24T08:15:00.141Z,101779.56
2022-08-24T08:17:28.350Z,101914.94
2022-08-24T08:19:56.532Z,102069.34
2022-08-24T08:22:50.614Z,102064.94
2022-08-24T08:25:19.368Z,102180.72
2022-08-24T08:27:48.771Z,102397.19
2022-08-24T08:30:17.140Z,102488.34
2022-08-24T08:32:45.245Z,102565.53
2022-08-24T08:35:13.979Z,102510.44
2022-08-24T08:37:42.828Z,102426.44
2022-08-24T08:40:25.708Z,102480.34
2022-08-24T08:43:07.589Z,102617.50
2022-08-24T08:45:49.151Z,102624.91
2022-08-24T08:48:49.514Z,102670.78
2022-08-24T08:51:39.602Z,102802.66
2022-08-24T08:54:18.115Z,102967.88
2022-08-24T08:57:02.032Z,103117.25
2022-08-24T08:59:45.733Z,103282.22
2022-08-24T09:02:30.260Z,103357.00
2022-08-24T09:05:38.649Z,103379.22
2022-08-24T09:08:17.435Z,103356.13
2022-08-24T09:10:58.035Z,103367.59
2022-08-24T09:13:58.568Z,103418.97
2022-08-24T09:16:43.090Z,103488.38
2022-08-24T09:19:31.525Z,103630.81
2022-08-24T09:22:10.618Z,103741.50
2022-08-24T09:25:18.978Z,103801.06
2022-08-24T09:28:14.682Z,103961.69
2022-08-24T09:31:04.870Z,104343.09
2022-08-24T09:33:39.437Z,104765.09
2022-08-24T09:36:13.188Z,104928.84
2022-08-24T09:38:59.360Z,105049.06
2022-08-24T09:41:55.848Z,105234.09
2022-08-24T09:45:02.072Z,105549.16
2022-08-24T09:47:56.808Z,106056.94
2022-08-24T09:50:51.282Z,106189.63
2022-08-24T09:53:43.683Z,106628.03
2022-08-24T09:56:24.790Z,107043.78
2022-08-24T09:59:13.147Z,107602.09
2022-08-24T10:01:49.877Z,107989.69
2022-08-24T10:04:32.305Z,108451.13
2022-08-24T10:07:13.145Z,108159.88
2022-08-24T10:10:04.560Z,108329.59
2022-08-24T10:12:47.129Z,108604.06
2022-08-24T10:15:21.549Z,108770.44
2022-08-24T10:18:32.322Z,108790.41
2022-08-24T10:21:25.989Z,109308.81
2022-08-24T10:24:17.028Z,108823.81
2022-08-24T10:27:02.977Z,109166.16
2022-08-24T10:29:48.949Z,109302.31
2022-08-24T10:32:32.153Z,109495.34
2022-08-24T10:35:05.797Z,109571.66
2022-08-24T10:38:15.344Z,109783.88
2022-08-24T10:40:54.570Z,109248.66
2022-08-24T10:43:47.437Z,109511.38
2022-08-24T10:46:38.890Z,109056.47
2022-08-24T10:49:57.280Z,109293.53
2022-08-24T10:52:56.867Z,109176.69
2022-08-24T10:55:27.954Z,109463.69
2022-08-24T10:58:34.208Z,109445.09
2022-08-24T11:01:19.161Z,109343.06
2022-08-24T11:03:53.988Z,109488.66
2022-08-24T11:06:23.391Z,108977.09
2022-08-24T11:08:59.095Z,108984.13
2022-08-24T11:11:33.677Z,108485.91
2022-08-24T11:14:06.423Z,108403.84
2022-08-24T11:16:47.982Z,108210.22
2022-08-24T11:19:32.792Z,107853.50
2022-08-24T11:22:03.784Z,107606.69
2022-08-24T11:24:42.277Z,107313.59
2022-08-24T11:27:22.228Z,107308.81
2022-08-24T11:30:01.153Z,107061.84
2022-08-24T11:32:38.846Z,106926.41
2022-08-24T11:35:10.891Z,106688.81
2022-08-24T11:37:40.462Z,106613.56
2022-08-24T11:40:11.053Z,106620.41
2022-08-24T11:43:16.903Z,106744.25
2022-08-24T11:45:58.501Z,106727.94
2022-08-24T11:48:38.180Z,106309.41
2022-08-24T11:51:23.948Z,106017.38
2022-08-24T11:54:02.769Z,105972.00
2022-08-24T11:56:41.260Z,105907.94
2022-08-24T11:59:18.921Z,105467.09
2022-08-24T12:01:55.071Z,105171.09
2022-08-24T12:04:50.600Z,105176.25
2022-08-24T12:07:33.025Z,104868.31
2022-08-24T12:10:19.369Z,104752.34
2022-08-24T12:12:53.518Z,104493.25
2022-08-24T12:15:31.727Z,104447.28
2022-08-24T12:18:05.817Z,104360.41
2022-08-24T12:20:43.069Z,104239.72
2022-08-24T12:23:25.799Z,104039.00
2022-08-24T12:26:04.484Z,103974.84
2022-08-24T12:28:38.016Z,103999.59
2022-08-24T12:31:13.266Z,103986.94
2022-08-24T12:33:50.235Z,103790.47
2022-08-24T12:36:32.363Z,103740.66
2022-08-24T12:39:10.048Z,103803.72
2022-08-24T12:41:49.308Z,103796.38
2022-08-24T12:44:18.612Z,103777.84
2022-08-24T12:46:54.712Z,103727.81
2022-08-24T12:49:30.173Z,103636.03
2022-08-24T12:52:23.890Z,103568.91
2022-08-24T12:55:16.352Z,103494.78
2022-08-24T12:57:58.438Z,103547.38
2022-08-24T13:00:35.040Z,103530.16
2022-08-24T13:03:05.990Z,103521.28
2022-08-24T13:05:52.012Z,103502.31
2022-08-24T13:08:38.098Z,103375.91
2022-08-24T13:11:17.064Z,103519.84
2022-08-24T13:14:05.962Z,103438.16
2022-08-24T13:16:53.847Z,103508.38
2022-08-24T13:19:36.280Z,103466.19
2022-08-24T13:22:40.015Z,103471.50
2022-08-24T13:25:42.743Z,103399.00
2022-08-24T13:28:28.845Z,103400.88
2022-08-24T13:31:28.427Z,103378.19
2022-08-24T13:34:01.209Z,103332.16
2022-08-24T13:36:56.435Z,103411.38
2022-08-24T13:39:54.679Z,103526.25
2022-08-24T13:43:04.266Z,103729.38
2022-08-24T13:45:37.848Z,103708.69
2022-08-24T13:48:28.057Z,103750.78
2022-08-24T13:51:21.597Z,103853.19
2022-08-24T13:54:04.034Z,103985.00
2022-08-24T13:56:46.852Z,104190.81
2022-08-24T13:59:22.607Z,104305.09
2022-08-24T14:02:06.588Z,104454.41
2022-08-24T14:04:56.317Z,104730.44
2022-08-24T14:07:30.572Z,105154.75
2022-08-24T14:10:15.552Z,105622.66
2022-08-24T14:12:58.793Z,106393.97
2022-08-24T14:15:46.581Z,106414.00
2022-08-24T14:18:23.312Z,106850.81
2022-08-24T14:21:10.115Z,106892.97
2022-08-24T14:24:03.996Z,107255.69
2022-08-24T14:27:08.402Z,108056.44
2022-08-24T14:29:46.962Z,108414.56
2022-08-24T14:32:40.326Z,108768.97
2022-08-24T14:35:32.747Z,109167.44
2022-08-24T14:38:26.387Z,109430.59
2022-08-24T14:41:11.560Z,109628.47
2022-08-24T14:44:08.572Z,109878.81
2022-08-24T14:46:45.540Z,109958.22
2022-08-24T14:49:22.441Z,110241.69
2022-08-24T14:52:05.138Z,110303.03
2022-08-24T14:54:42.638Z,110286.28
2022-08-24T14:57:37.087Z,109942.06
2022-08-24T15:00:13.904Z,109611.66
2022-08-24T15:03:12.150Z,109333.53
2022-08-24T15:06:09.501Z,109291.34
2022-08-24T15:08:48.437Z,109381.00
2022-08-24T15:11:29.622Z,109385.25
2022-08-24T15:14:07.337Z,109186.06
2022-08-24T15:16:53.423Z,109344.91
2022-08-24T15:19:30.412Z,109371.41
2022-08-24T15:22:03.868Z,109367.25
2022-08-24T15:24:41.070Z,109180.63
2022-08-24T15:27:19.905Z,109190.56
2022-08-24T15:29:55.185Z,108550.19
2022-08-24T15:32:28.233Z,107622.28
2022-08-24T15:34:58.727Z,106621.69
2022-08-24T15:37:33.111Z,105555.91
2022-08-24T15:40:02.778Z,104978.59
2022-08-24T15:42:35.500Z,104464.00
2022-08-24T15:45:05.828Z,103911.88
2022-08-24T15:47:41.531Z,103684.19
2022-08-24T15:50:23.840Z,103605.41
2022-08-24T15:53:01.517Z,103824.28
2022-08-24T15:55:39.283Z,104498.81
2022-08-24T15:58:28.485Z,105292.84
2022-08-24T16:01:37.619Z,105796.50
2022-08-24T16:04:08.323Z,105701.31
2022-08-24T16:06:42.583Z,105044.31
2022-08-24T16:09:32.826Z,104643.41
2022-08-24T16:12:04.810Z,104630.03
2022-08-24T16:14:36.411Z,104401.56
2022-08-24T16:17:22.229Z,104046.63
2022-08-24T16:19:52.947Z,103464.47
2022-08-24T16:22:33.131Z,103038.50
2022-08-24T16:25:18.535Z,102644.50
2022-08-24T16:28:19.030Z,102496.72
2022-08-24T16:30:51.188Z,102282.38
2022-08-24T16:33:43.320Z,102065.13
2022-08-24T16:36:18.171Z,101936.34
2022-08-24T16:38:49.514Z,101864.47
2022-08-24T16:41:21.278Z,101792.75
2022-08-24T16:43:50.314Z,101712.03
2022-08-24T16:46:48.119Z,101580.59
2022-08-24T16:49:22.282Z,101550.31
2022-08-24T16:51:56.737Z,101501.06
2022-08-24T16:54:25.030Z,101472.59
2022-08-24T16:56:55.659Z,101498.19
2022-08-24T16:59:30.904Z,101497.34
2022-08-24T17:01:59.174Z,101351.53
2022-08-24T17:04:27.644Z,101400.41
2022-08-24T17:06:57.977Z,101315.00
2022-08-24T17:09:28.488Z,101273.75
2022-08-24T17:12:05.278Z,101202.25
2022-08-24T17:14:37.676Z,101139.00
2022-08-24T17:17:07.064Z,101077.81
2022-08-24T17:19:35.572Z,101025.72
2022-08-24T17:22:03.744Z,100969.78
2022-08-24T17:24:33.844Z,100918.75
2022-08-24T17:27:05.306Z,100868.53
2022-08-24T17:29:33.656Z,100799.44
2022-08-24T17:32:01.944Z,100768.06
2022-08-24T17:34:32.388Z,100713.72
2022-08-24T17:37:02.111Z,100679.78
2022-08-24T17:39:30.360Z,100608.75
2022-08-24T17:42:00.405Z,100597.81
2022-08-24T17:44:33.390Z,100547.56
2022-08-24T17:47:03.833Z,100507.41
2022-08-24T17:49:32.319Z,100445.88
2022-08-24T17:52:01.161Z,100392.66
2022-08-24T17:54:29.533Z,100293.97
2022-08-24T17:56:58.463Z,100243.44
2022-08-24T17:59:32.358Z,100144.97
2022-08-24T18:02:06.184Z,100059.50
2022-08-24T18:04:36.486Z,99984.72
2022-08-24T18:07:11.764Z,99949.56
2022-08-24T18:09:46.126Z,99870.09
2022-08-24T18:12:14.239Z,99758.97
2022-08-24T18:14:43.669Z,99721.13
2022-08-24T18:17:20.073Z,99670.81
2022-08-24T18:19:54.301Z,99596.81
2022-08-24T18:22:22.431Z,99528.16
2022-08-24T18:24:50.409Z,99483.22
2022-08-24T18:27:22.880Z,99414.28
2022-08-24T18:29:54.942Z,99364.34
2022-08-24T18:32:39.569Z,99321.16
2022-08-24T18:35:15.057Z,99226.50
2022-08-24T18:37:43.459Z,99198.69
2022-08-24T18:40:12.574Z,99175.50
2022-08-24T18:42:44.925Z,99099.28
2022-08-24T18:45:15.043Z,99073.97
2022-08-24T18:47:43.341Z,99039.38
2022-08-24T18:50:12.204Z,98982.53
2022-08-24T18:52:43.125Z,98952.94
2022-08-24T18:55:15.014Z,98902.00
2022-08-24T18:57:43.168Z,98884.94
2022-08-24T19:00:13.134Z,98864.84
2022-08-24T19:02:45.080Z,98832.31
2022-08-24T19:05:21.378Z,98789.19
2022-08-24T19:07:51.312Z,98750.19
2022-08-24T19:10:23.661Z,98724.81
2022-08-24T19:12:56.282Z,98650.38
2022-08-24T19:15:32.618Z,98669.25
2022-08-24T19:18:11.252Z,98635.25
2022-08-24T19:20:46.033Z,98617.53
2022-08-24T19:23:20.095Z,98587.19
2022-08-24T19:25:49.223Z,98538.44
2022-08-24T19:28:17.358Z,98534.84
2022-08-24T19:30:46.850Z,98463.16
2022-08-24T19:33:21.011Z,98455.19
2022-08-24T19:35:49.293Z,98452.88
2022-08-24T19:38:18.508Z,98423.81
2022-08-24T19:40:49.849Z,98389.91
2022-08-24T19:43:18.076Z,98353.44
2022-08-24T19:46:06.340Z,98310.22
2022-08-24T19:48:37.569Z,98266.34
2022-08-24T19:51:08.813Z,98271.16
2022-08-24T19:53:38.525Z,98220.59
2022-08-24T19:56:07.977Z,98227.44
2022-08-24T19:58:45.277Z,98194.44
2022-08-24T20:01:18.471Z,98173.84
2022-08-24T20:03:48.117Z,98153.22
2022-08-24T20:06:17.773Z,98105.25
2022-08-24T20:08:48.410Z,98097.16
2022-08-24T20:11:17.623Z,98069.09
2022-08-24T20:13:46.094Z,98055.09
2022-08-24T20:16:18.004Z,98036.34
2022-08-24T20:18:47.909Z,98015.56
2022-08-24T20:21:16.941Z,97969.41
2022-08-24T20:23:45.759Z,97921.34
2022-08-24T20:26:14.830Z,97905.09
2022-08-24T20:28:46.739Z,97912.25
2022-08-24T20:31:15.196Z,97873.09
2022-08-24T20:33:43.604Z,97833.22
2022-08-24T20:36:22.907Z,97805.75
2022-08-24T20:38:51.056Z,97788.84
2022-08-24T20:41:19.389Z,97766.44
2022-08-24T20:43:47.386Z,97725.81
2022-08-24T20:46:15.655Z,97722.19
2022-08-24T20:48:44.644Z,97699.19
2022-08-24T20:51:15.378Z,97669.97
2022-08-24T20:53:44.070Z,97663.81
2022-08-24T20:56:16.610Z,97639.16
2022-08-24T20:58:44.794Z,97614.75
2022-08-24T21:01:12.923Z,97600.97
2022-08-24T21:03:40.947Z,97578.56
2022-08-24T21:06:10.890Z,97561.53
2022-08-24T21:08:49.236Z,97533.09
2022-08-24T21:11:17.850Z,97535.38
2022-08-24T21:13:45.826Z,97523.72
2022-08-24T21:16:15.954Z,97506.50
2022-08-24T21:18:44.498Z,97501.53
2022-08-24T21:21:12.515Z,97480.63
2022-08-24T21:23:44.079Z,97454.66
2022-08-24T21:26:16.279Z,97478.72
2022-08-24T21:28:45.031Z,97463.75
2022-08-24T21:31:13.087Z,97427.16
2022-08-24T21:33:58.517Z,97417.63
2022-08-24T21:36:31.912Z,97450.22
2022-08-24T21:39:01.439Z,97424.75
2022-08-24T21:41:29.569Z,97407.34
2022-08-24T21:43:58.138Z,97390.50
2022-08-24T21:46:32.849Z,97389.00
2022-08-24T21:49:01.433Z,97303.31
2022-08-24T21:51:29.832Z,97367.28
2022-08-24T21:53:59.717Z,97360.31
2022-08-24T21:56:33.165Z,97351.91
2022-08-24T21:59:02.937Z,97335.72
2022-08-24T22:01:30.997Z,97331.41
2022-08-24T22:04:01.504Z,97290.13
2022-08-24T22:06:31.802Z,97305.78
2022-08-24T22:09:00.445Z,97277.94
2022-08-24T22:11:30.802Z,97269.69
2022-08-24T22:13:59.613Z,97229.91
2022-08-24T22:16:27.737Z,97195.97
2022-08-24T22:18:55.805Z,97219.47
2022-08-24T22:21:29.470Z,97207.38
2022-08-24T22:23:58.156Z,97175.34
2022-08-24T22:26:27.075Z,97149.13
2022-08-24T22:28:57.165Z,97106.06
2022-08-24T22:31:27.911Z,97117.94
2022-08-24T22:33:58.171Z,97119.28
2022-08-24T22:36:27.789Z,97059.53
2022-08-24T22:38:56.130Z,97064.66
2022-08-24T22:41:24.668Z,97092.84
2022-08-24T22:44:14.288Z,97087.91
2022-08-24T22:46:42.638Z,97063.94
2022-08-24T22:49:12.282Z,97058.44
2022-08-24T22:51:41.425Z,97039.00
2022-08-24T22:54:10.610Z,97012.75
2022-08-24T22:56:41.443Z,97001.03
2022-08-24T22:59:15.779Z,96986.31
2022-08-24T23:01:46.006Z,96970.34
2022-08-24T23:04:16.540Z,96959.50
2022-08-24T23:06:44.730Z,96939.63
2022-08-24T23:09:13.572Z,96901.09
2022-08-24T23:11:41.925Z,96931.50
2022-08-24T23:14:12.455Z,96918.63
2022-08-24T23:16:44.749Z,96886.25
2022-08-24T23:19:30.223Z,96893.22
2022-08-24T23:21:58.791Z,96872.38
2022-08-24T23:24:26.758Z,96874.81
2022-08-24T23:26:55.430Z,96862.38
2022-08-24T23:29:25.212Z,96847.41
2022-08-24T23:31:53.974Z,96837.44
2022-08-24T23:34:22.667Z,96803.19
2022-08-24T23:36:51.742Z,96823.50
2022-08-24T23:39:21.291Z,96815.13
2022-08-24T23:41:50.845Z,96816.38
2022-08-24T23:44:21.887Z,96818.41
2022-08-24T23:46:54.326Z,96817.19
2022-08-24T23:49:24.333Z,96799.97
2022-08-24T23:51:53.321Z,96803.69
2022-08-24T23:54:22.070Z,96790.63
2022-08-24T23:56:51.093Z,96806.53
2022-08-24T23:59:21.242Z,96795.84
